Time;durP1;ratioP1;P1;durP2;ratioP2;P2;SDS_P1;SDS_P2;PMS_P1;PMS_P2;Temp;Humidity;BMP_temperature;BMP_pressure;BME280_temperature;BME280_humidity;BME280_pressure;Samples;Min_cycle;Max_cycle;Signal;HPM_P1;HPM_P2
2021/11/29 00:01:24;;;;;;;9.93;3.53;;;;;;;0.00;100.00;100618.53;5051867;28;20127;-73
2021/11/29 00:03:50;;;;;;;12.00;4.32;;;;;;;-0.02;100.00;100615.97;5051962;28;20045;-73
2021/11/29 00:06:17;;;;;;;5.68;2.72;;;;;;;-0.04;100.00;100628.31;5051518;28;20405;-73
2021/11/29 00:08:46;;;;;;;5.55;2.80;;;;;;;-0.06;100.00;100624.06;5052140;28;20392;-73
2021/11/29 00:11:12;;;;;;;6.00;2.90;;;;;;;-0.09;100.00;100625.06;5051347;28;20055;-73
2021/11/29 00:13:37;;;;;;;5.80;2.30;;;;;;;-0.19;100.00;100626.44;5034064;28;20079;-73
2021/11/29 00:16:03;;;;;;;3.13;2.03;;;;;;;-0.33;100.00;100621.88;5051667;28;20029;-74
2021/11/29 00:18:29;;;;;;;3.88;2.03;;;;;;;-0.46;100.00;100626.00;5051749;28;20045;-73
2021/11/29 00:20:54;;;;;;;2.92;2.17;;;;;;;-0.59;100.00;100617.91;5051923;28;20033;-73
2021/11/29 00:23:20;;;;;;;5.72;2.53;;;;;;;-0.69;100.00;100627.09;5033378;28;20539;-73
2021/11/29 00:25:45;;;;;;;5.80;2.67;;;;;;;-0.75;100.00;100626.50;5051666;28;20055;-74
2021/11/29 00:28:11;;;;;;;3.88;2.70;;;;;;;-0.74;100.00;100622.09;5051407;28;20028;-73
2021/11/29 00:30:38;;;;;;;8.20;3.00;;;;;;;-0.69;100.00;100627.09;5052164;28;20033;-72
2021/11/29 00:33:05;;;;;;;5.70;2.92;;;;;;;-0.65;100.00;100637.34;5055357;28;20037;-73
2021/11/29 00:35:30;;;;;;;2.88;2.55;;;;;;;-0.58;100.00;100636.13;5055218;28;20036;-73
2021/11/29 00:37:55;;;;;;;7.15;2.80;;;;;;;-0.53;100.00;100628.06;5055169;28;20036;-74
2021/11/29 00:40:21;;;;;;;7.18;2.88;;;;;;;-0.54;100.00;100628.97;5054583;28;20078;-73
2021/11/29 00:42:46;;;;;;;5.80;2.88;;;;;;;-0.61;100.00;100622.34;5055273;28;20055;-73
2021/11/29 00:45:12;;;;;;;5.10;3.00;;;;;;;-0.66;100.00;100612.13;5054826;28;20159;-73
2021/11/29 00:47:38;;;;;;;7.13;3.20;;;;;;;-0.67;100.00;100606.97;5055047;28;20473;-73
2021/11/29 00:50:07;;;;;;;6.53;3.10;;;;;;;-0.72;100.00;100600.22;5054948;28;20032;-73
2021/11/29 00:52:33;;;;;;;6.13;3.20;;;;;;;-0.78;100.00;100615.31;5054725;28;20025;-73
2021/11/29 00:54:58;;;;;;;5.68;2.90;;;;;;;-0.81;100.00;100621.53;5054735;28;20032;-73
2021/11/29 00:57:24;;;;;;;11.43;3.28;;;;;;;-0.79;100.00;100626.69;5054831;28;20029;-73
2021/11/29 00:59:49;;;;;;;5.78;3.80;;;;;;;-0.72;100.00;100630.69;5054862;28;20063;-73
2021/11/29 01:02:16;;;;;;;6.75;3.20;;;;;;;-0.63;100.00;100642.50;5054124;28;20033;-73
2021/11/29 01:04:42;;;;;;;5.47;3.45;;;;;;;-0.56;100.00;100649.97;5054891;28;20033;-73
2021/11/29 01:07:07;;;;;;;7.53;4.30;;;;;;;-0.48;100.00;100673.13;5054773;28;20040;-73
2021/11/29 01:09:33;;;;;;;7.47;4.63;;;;;;;-0.40;100.00;100672.78;5054076;28;20107;-73
2021/11/29 01:11:58;;;;;;;11.35;7.47;;;;;;;-0.33;100.00;100663.72;5054883;28;20036;-73
2021/11/29 01:14:24;;;;;;;12.55;7.05;;;;;;;-0.30;100.00;100662.72;5054224;28;20037;-74
2021/11/29 01:16:49;;;;;;;8.40;6.80;;;;;;;-0.29;100.00;100685.34;5054584;28;20115;-73
2021/11/29 01:19:15;;;;;;;10.68;7.68;;;;;;;-0.27;100.00;100688.72;5054132;28;20052;-74
2021/11/29 01:21:40;;;;;;;12.52;7.75;;;;;;;-0.23;100.00;100679.81;5054354;28;20041;-73
2021/11/29 01:24:05;;;;;;;9.68;7.50;;;;;;;-0.21;100.00;100677.97;5036387;28;20039;-73
2021/11/29 01:26:31;;;;;;;8.60;6.80;;;;;;;-0.24;100.00;100662.41;5054021;28;20032;-73
2021/11/29 01:28:56;;;;;;;9.73;6.53;;;;;;;-0.27;100.00;100659.97;5054172;28;20167;-73
2021/11/29 01:31:22;;;;;;;7.63;6.13;;;;;;;-0.39;100.00;100650.94;5053952;28;20488;-74
2021/11/29 01:33:47;;;;;;;7.82;5.70;;;;;;;-0.56;100.00;100655.19;5054100;28;20477;-74
2021/11/29 01:36:13;;;;;;;7.65;6.45;;;;;;;-0.71;100.00;100656.75;5053652;28;20114;-74
2021/11/29 01:38:39;;;;;;;9.63;6.97;;;;;;;-0.78;100.00;100663.19;5054006;28;20064;-74
2021/11/29 01:41:04;;;;;;;10.93;8.45;;;;;;;-0.75;100.00;100673.53;5053765;28;20029;-73
2021/11/29 01:43:30;;;;;;;12.63;9.57;;;;;;;-0.65;100.00;100687.00;5052575;28;20041;-74
2021/11/29 01:45:56;;;;;;;11.00;9.80;;;;;;;-0.56;100.00;100694.41;5054167;28;20549;-73
2021/11/29 01:48:24;;;;;;;14.70;11.55;;;;;;;-0.43;100.00;100709.53;5053516;28;20045;-73
2021/11/29 01:50:52;;;;;;;18.95;12.27;;;;;;;-0.35;100.00;100717.84;5053792;28;20487;-73
2021/11/29 01:53:21;;;;;;;17.67;13.30;;;;;;;-0.30;100.00;100734.19;5053137;28;20044;-73
2021/11/29 01:55:49;;;;;;;13.65;11.15;;;;;;;-0.23;100.00;100729.50;5054013;28;20033;-73
2021/11/29 01:58:15;;;;;;;12.13;10.77;;;;;;;-0.26;100.00;100714.78;5053464;28;20087;-79
2021/11/29 02:00:45;;;;;;;14.90;11.15;;;;;;;-0.27;100.00;100702.66;5053661;28;20436;-73
2021/11/29 02:03:12;;;;;;;14.02;10.98;;;;;;;-0.28;100.00;100681.81;5035775;28;20435;-73
2021/11/29 02:05:38;;;;;;;25.52;13.88;;;;;;;-0.30;100.00;100681.03;5053072;28;20409;-73
2021/11/29 02:08:04;;;;;;;20.73;14.95;;;;;;;-0.35;100.00;100678.63;5053287;28;20116;-73
2021/11/29 02:10:29;;;;;;;17.48;14.55;;;;;;;-0.40;100.00;100673.63;5053198;28;20032;-73
2021/11/29 02:12:55;;;;;;;17.55;14.18;;;;;;;-0.49;100.00;100670.59;5053424;28;20443;-73
2021/11/29 02:15:21;;;;;;;17.65;15.32;;;;;;;-0.61;100.00;100672.00;5052966;28;20059;-73
2021/11/29 02:17:47;;;;;;;21.90;17.23;;;;;;;-0.69;100.00;100663.69;5053483;28;20389;-73
2021/11/29 02:20:15;;;;;;;20.98;16.33;;;;;;;-0.78;100.00;100664.97;5052872;28;20048;-73
2021/11/29 02:22:40;;;;;;;23.42;16.67;;;;;;;-0.85;100.00;100672.25;5052509;28;20556;-73
2021/11/29 02:25:07;;;;;;;20.92;16.20;;;;;;;-0.93;100.00;100669.13;5053017;28;20120;-73
2021/11/29 02:27:32;;;;;;;24.05;17.67;;;;;;;-1.02;100.00;100674.75;5052862;28;20488;-73
2021/11/29 02:29:58;;;;;;;26.45;19.13;;;;;;;-1.08;100.00;100668.88;5053185;28;20033;-73
2021/11/29 02:32:24;;;;;;;24.40;18.33;;;;;;;-1.09;100.00;100668.94;5052521;28;20029;-73
2021/11/29 02:34:49;;;;;;;32.58;21.42;;;;;;;-1.05;100.00;100664.44;5052993;28;20040;-73
2021/11/29 02:37:15;;;;;;;27.30;19.02;;;;;;;-1.04;100.00;100661.78;5053060;28;20162;-73
2021/11/29 02:39:41;;;;;;;26.85;18.83;;;;;;;-1.03;100.00;100667.84;5052576;28;20033;-73
2021/11/29 02:42:11;;;;;;;26.92;18.58;;;;;;;-1.01;100.00;100660.78;5053194;28;20457;-73
2021/11/29 02:44:37;;;;;;;29.75;18.42;;;;;;;-1.00;100.00;100660.72;5052473;28;20037;-73
2021/11/29 02:47:04;;;;;;;27.10;16.38;;;;;;;-0.97;100.00;100660.59;5052870;28;20037;-73
2021/11/29 02:49:29;;;;;;;27.40;16.85;;;;;;;-0.99;100.00;100659.78;5052313;28;20032;-73
2021/11/29 02:52:17;;;;;;;29.25;18.30;;;;;;;-0.98;100.00;100664.09;5052560;28;20055;-73
2021/11/29 02:54:44;;;;;;;27.20;18.23;;;;;;;-1.01;100.00;100659.03;5052051;28;20028;-73
2021/11/29 02:57:16;;;;;;;23.25;17.40;;;;;;;-1.03;100.00;100652.16;5052706;28;20037;-73
2021/11/29 02:59:43;;;;;;;29.95;18.60;;;;;;;-1.05;100.00;100659.22;5052211;28;20037;-73
2021/11/29 03:02:12;;;;;;;25.58;18.63;;;;;;;-1.10;100.00;100655.06;5052532;28;20082;-73
2021/11/29 03:04:38;;;;;;;26.77;17.88;;;;;;;-1.17;100.00;100661.47;5051911;28;20064;-73
2021/11/29 03:07:04;;;;;;;29.73;18.02;;;;;;;-1.17;100.00;100669.28;5052745;28;20040;-73
2021/11/29 03:09:30;;;;;;;33.08;20.85;;;;;;;-1.13;100.00;100668.25;5052159;28;20124;-73
2021/11/29 03:11:56;;;;;;;30.38;21.73;;;;;;;-1.02;100.00;100680.00;5052456;28;20039;-73
2021/11/29 03:14:22;;;;;;;37.38;22.17;;;;;;;-0.94;100.00;100691.78;5052437;28;20448;-73
2021/11/29 03:16:49;;;;;;;29.27;21.35;;;;;;;-0.84;100.00;100707.03;5051901;28;20119;-73
2021/11/29 03:19:15;;;;;;;32.63;20.15;;;;;;;-0.82;100.00;100708.69;5052024;28;20085;-73
2021/11/29 03:21:41;;;;;;;36.30;21.20;;;;;;;-0.78;100.00;100709.38;5034166;28;20067;-73
2021/11/29 03:24:09;;;;;;;37.38;21.33;;;;;;;-0.71;100.00;100705.56;5052219;28;20025;-73
2021/11/29 03:26:36;;;;;;;35.15;17.15;;;;;;;-0.63;100.00;100713.06;5051865;28;20447;-73
2021/11/29 03:29:10;;;;;;;24.60;11.00;;;;;;;-0.52;100.00;100720.41;5052517;28;20366;-73
2021/11/29 03:31:37;;;;;;;13.60;2.85;;;;;;;-0.18;100.00;100735.34;5052225;28;20086;-73
2021/11/29 03:34:05;;;;;;;8.80;1.52;;;;;;;0.05;100.00;100718.56;5052352;28;20653;-73
2021/11/29 03:36:33;;;;;;;13.77;2.03;;;;;;;0.18;100.00;100721.44;5051993;28;20115;-73
2021/11/29 03:39:00;;;;;;;9.48;2.08;;;;;;;0.23;100.00;100710.75;5052216;28;20516;-73
2021/11/29 03:41:26;;;;;;;9.07;1.42;;;;;;;0.24;100.00;100700.19;5052010;28;20108;-73
2021/11/29 03:43:52;;;;;;;10.55;1.10;;;;;;;0.17;100.00;100678.72;5052195;28;20055;-73
2021/11/29 03:46:18;;;;;;;10.35;1.20;;;;;;;0.10;100.00;100679.09;5051920;28;20037;-73
2021/11/29 03:48:43;;;;;;;7.40;1.30;;;;;;;0.03;100.00;100681.19;5051874;28;20029;-73
2021/11/29 03:51:09;;;;;;;5.63;1.20;;;;;;;-0.06;100.00;100687.69;5051998;28;20033;-73
2021/11/29 03:53:35;;;;;;;4.75;1.30;;;;;;;-0.15;100.00;100687.28;5051883;28;20493;-73
2021/11/29 03:56:00;;;;;;;10.00;1.13;;;;;;;-0.20;100.00;100684.91;5052144;28;20029;-73
2021/11/29 03:58:26;;;;;;;6.63;1.40;;;;;;;-0.18;100.00;100693.50;5052119;28;20124;-73
2021/11/29 04:00:51;;;;;;;17.48;1.60;;;;;;;-0.14;100.00;100686.38;5051441;28;20025;-73
2021/11/29 04:03:17;;;;;;;14.20;2.47;;;;;;;-0.08;100.00;100689.53;5051870;28;20029;-73
2021/11/29 04:05:42;;;;;;;19.02;2.92;;;;;;;0.01;100.00;100698.69;5052097;28;20481;-73
2021/11/29 04:08:08;;;;;;;13.93;1.83;;;;;;;0.09;100.00;100695.72;5055689;28;20029;-73
2021/11/29 04:10:34;;;;;;;10.30;1.73;;;;;;;0.09;100.00;100703.56;5055285;28;20584;-73
2021/11/29 04:13:00;;;;;;;14.18;2.20;;;;;;;0.13;100.00;100705.94;5055667;28;20076;-73
2021/11/29 04:15:25;;;;;;;10.30;1.50;;;;;;;0.14;100.00;100702.41;5055784;28;20029;-74
2021/11/29 04:17:50;;;;;;;10.70;1.60;;;;;;;0.15;100.00;100709.34;5055028;28;20595;-74
2021/11/29 04:20:16;;;;;;;12.55;1.88;;;;;;;0.22;100.00;100709.03;5055637;28;20086;-73
2021/11/29 04:22:46;;;;;;;5.72;1.15;;;;;;;0.26;100.00;100706.19;5055051;28;20397;-73
2021/11/29 04:25:14;;;;;;;12.88;1.60;;;;;;;0.33;100.00;100720.69;5055378;28;20032;-72
2021/11/29 04:27:42;;;;;;;10.77;1.60;;;;;;;0.43;100.00;100710.56;5054944;28;20044;-73
2021/11/29 04:30:13;;;;;;;9.70;1.40;;;;;;;0.52;100.00;100714.50;5055185;28;20182;-73
2021/11/29 04:32:40;;;;;;;7.20;1.40;;;;;;;0.52;100.00;100714.50;5055224;28;20037;-73
2021/11/29 04:35:07;;;;;;;10.45;1.35;;;;;;;0.43;100.00;100710.56;5055451;28;20170;-73
2021/11/29 04:37:32;;;;;;;9.15;1.70;;;;;;;0.35;100.00;100710.13;5055356;28;20025;-74
2021/11/29 04:39:58;;;;;;;6.13;1.30;;;;;;;0.31;100.00;100722.53;5054834;28;20040;-73
2021/11/29 04:42:23;;;;;;;12.20;1.67;;;;;;;0.33;100.00;100720.69;5055289;28;20135;-74
2021/11/29 04:44:49;;;;;;;22.50;2.33;;;;;;;0.49;100.00;100727.75;5054478;28;20461;-73
2021/11/29 04:47:14;;;;;;;10.10;1.42;;;;;;;0.67;100.00;100724.22;5054787;28;20189;-72
2021/11/29 04:49:40;;;;;;;9.73;1.65;;;;;;;0.82;100.00;100733.06;5054519;28;20473;-73
2021/11/29 04:52:06;;;;;;;13.77;2.08;;;;;;;0.96;99.89;100740.19;5055096;28;20040;-73
2021/11/29 04:54:31;;;;;;;12.65;1.63;;;;;;;0.95;99.66;100742.91;5054966;28;20120;-73
2021/11/29 04:56:56;;;;;;;8.30;1.73;;;;;;;0.85;98.54;100726.81;5054767;28;20111;-72
2021/11/29 04:59:22;;;;;;;13.55;1.42;;;;;;;0.76;99.23;100727.28;5054922;28;20120;-72
2021/11/29 05:01:47;;;;;;;6.57;1.48;;;;;;;0.71;100.00;100732.75;5054386;28;20037;-73
2021/11/29 05:04:13;;;;;;;19.20;2.13;;;;;;;0.76;100.00;100716.81;5054617;28;20112;-73
2021/11/29 05:06:38;;;;;;;14.68;1.92;;;;;;;0.80;100.00;100732.28;5054181;28;20112;-72
2021/11/29 05:09:09;;;;;;;11.10;1.75;;;;;;;0.85;99.70;100726.81;5054663;28;20063;-72
2021/11/29 05:11:35;;;;;;;9.63;1.63;;;;;;;0.82;99.86;100722.59;5054466;28;20021;-72
2021/11/29 05:14:00;;;;;;;8.55;1.90;;;;;;;0.83;99.18;100723.44;5053763;28;20130;-72
2021/11/29 05:16:26;;;;;;;7.68;1.17;;;;;;;0.79;99.71;100722.75;5054443;28;20035;-72
2021/11/29 05:18:51;;;;;;;5.45;1.52;;;;;;;0.77;99.50;100718.50;5054084;28;20087;-71
2021/11/29 05:21:17;;;;;;;9.88;1.35;;;;;;;0.74;99.65;100729.16;5054437;28;20380;-72
2021/11/29 05:23:42;;;;;;;6.15;2.15;;;;;;;0.79;99.66;100738.47;5053787;28;20074;-73
2021/11/29 05:26:07;;;;;;;9.13;1.80;;;;;;;0.97;99.19;100733.19;5054216;28;20572;-71
2021/11/29 05:28:33;;;;;;;8.77;1.70;;;;;;;1.12;96.77;100742.88;5054075;28;20025;-73
2021/11/29 05:30:58;;;;;;;16.67;1.77;;;;;;;1.23;96.02;100748.38;5053549;28;20126;-72
2021/11/29 05:33:23;;;;;;;6.65;1.45;;;;;;;1.46;92.78;100769.06;5054185;28;20401;-74
2021/11/29 05:35:49;;;;;;;11.57;1.42;;;;;;;1.63;94.81;100782.13;5053352;28;20117;-72
2021/11/29 05:38:14;;;;;;;5.97;1.35;;;;;;;1.65;94.68;100772.38;5054271;28;20393;-72
2021/11/29 05:40:40;;;;;;;13.02;1.48;;;;;;;1.59;95.79;100772.72;5053955;28;20071;-72
2021/11/29 05:43:05;;;;;;;5.85;1.45;;;;;;;1.50;96.10;100791.59;5053418;28;20036;-72
2021/11/29 05:45:31;;;;;;;10.85;1.38;;;;;;;1.40;96.89;100794.69;5053756;28;20114;-72
2021/11/29 05:47:56;;;;;;;7.50;1.60;;;;;;;1.38;96.94;100801.78;5053469;28;20040;-72
2021/11/29 05:50:22;;;;;;;7.18;1.55;;;;;;;1.36;97.79;100789.69;5053876;28;20029;-72
2021/11/29 05:52:47;;;;;;;7.28;1.30;;;;;;;1.30;97.27;100790.00;5053274;28;20070;-73
2021/11/29 05:55:14;;;;;;;7.93;1.33;;;;;;;1.24;97.20;100791.19;5053762;28;20389;-72
2021/11/29 05:57:42;;;;;;;8.57;2.45;;;;;;;1.14;97.64;100796.06;5053698;28;20035;-73
2021/11/29 06:00:10;;;;;;;6.47;1.25;;;;;;;1.04;97.97;100786.97;5052587;28;20097;-72
2021/11/29 06:02:38;;;;;;;9.98;1.45;;;;;;;0.90;98.40;100782.44;5053595;28;20053;-72
2021/11/29 06:05:04;;;;;;;12.80;1.30;;;;;;;0.75;98.72;100786.69;5052876;28;20125;-72
2021/11/29 06:07:29;;;;;;;8.27;2.00;;;;;;;0.56;98.98;100778.91;5053288;28;20048;-72
2021/11/29 06:09:54;;;;;;;8.57;1.73;;;;;;;0.37;99.22;100780.72;5052831;28;20037;-72
2021/11/29 06:12:20;;;;;;;9.35;1.95;;;;;;;0.21;99.86;100784.09;5053198;28;20393;-73
2021/11/29 06:14:45;;;;;;;10.60;1.60;;;;;;;0.15;100.00;100780.00;5053108;28;20370;-73
2021/11/29 06:17:11;;;;;;;8.20;1.70;;;;;;;0.23;100.00;100790.09;5053410;28;20120;-72
2021/11/29 06:19:36;;;;;;;9.73;1.33;;;;;;;0.32;100.00;100788.81;5053193;28;20134;-73
2021/11/29 06:22:01;;;;;;;21.67;2.35;;;;;;;0.38;100.00;100795.53;5053038;28;20040;-73
2021/11/29 06:24:27;;;;;;;18.50;1.77;;;;;;;0.43;100.00;100801.38;5050363;28;20029;-75
2021/11/29 06:26:52;;;;;;;13.02;1.92;;;;;;;0.45;100.00;100803.00;5052378;28;20478;-73
2021/11/29 06:29:17;;;;;;;17.50;1.90;;;;;;;0.50;100.00;100818.47;5051832;28;20373;-76
2021/11/29 06:31:43;;;;;;;24.27;2.47;;;;;;;0.53;100.00;100810.47;5050463;28;20029;-73
2021/11/29 06:34:08;;;;;;;13.88;2.25;;;;;;;0.57;100.00;100806.78;5052448;28;20040;-74
2021/11/29 06:36:34;;;;;;;16.50;2.00;;;;;;;0.61;100.00;100804.84;5034028;28;20061;-77
2021/11/29 06:39:00;;;;;;;9.30;2.20;;;;;;;0.68;100.00;100801.00;5051803;28;20112;-72
2021/11/29 06:41:27;;;;;;;12.00;1.80;;;;;;;0.78;100.00;100798.78;5052773;28;20079;-74
2021/11/29 06:43:52;;;;;;;11.23;1.42;;;;;;;1.00;100.00;100803.75;5052266;28;20037;-74
2021/11/29 06:46:19;;;;;;;16.67;1.98;;;;;;;1.13;100.00;100806.63;5052546;28;20538;-74
2021/11/29 06:48:45;;;;;;;11.00;1.48;;;;;;;1.36;94.96;100806.28;5052759;28;20033;-74
2021/11/29 06:51:11;;;;;;;11.70;1.73;;;;;;;1.49;94.70;100813.47;5052117;28;20037;-74
2021/11/29 06:53:37;;;;;;;8.35;1.38;;;;;;;1.50;94.31;100810.78;5052563;28;20035;-72
2021/11/29 06:56:04;;;;;;;5.63;1.75;;;;;;;1.51;94.42;100819.50;5052083;28;20107;-73
2021/11/29 06:58:30;;;;;;;9.77;2.70;;;;;;;1.54;91.61;100820.19;5052513;28;20397;-74
2021/11/29 07:00:56;;;;;;;10.23;1.58;;;;;;;1.68;92.66;100815.97;5051881;28;20037;-74
2021/11/29 07:03:21;;;;;;;9.98;1.70;;;;;;;1.77;91.20;100829.44;5053032;28;20385;-74
2021/11/29 07:05:49;;;;;;;9.68;1.50;;;;;;;1.87;92.25;100828.97;5052437;28;20040;-74
2021/11/29 07:08:15;;;;;;;12.02;1.55;;;;;;;2.03;90.47;100835.06;5051806;28;20389;-74
2021/11/29 07:10:40;;;;;;;13.35;2.03;;;;;;;2.29;87.65;100824.88;5052388;28;20036;-74
2021/11/29 07:13:11;;;;;;;7.35;1.35;;;;;;;2.43;88.96;100834.59;5051847;28;20036;-74
2021/11/29 07:15:37;;;;;;;12.20;1.58;;;;;;;2.53;88.29;100848.06;5052342;28;20103;-74
2021/11/29 07:18:03;;;;;;;6.05;1.45;;;;;;;2.58;88.13;100853.91;5051942;28;20051;-74
2021/11/29 07:20:29;;;;;;;17.90;2.13;;;;;;;2.53;89.57;100856.78;5052141;28;20457;-74
2021/11/29 07:22:58;;;;;;;14.88;1.73;;;;;;;2.45;89.96;100859.84;5051715;28;20029;-78
2021/11/29 07:25:23;;;;;;;14.85;2.08;;;;;;;2.37;88.94;100862.03;5052169;28;20045;-74
2021/11/29 07:27:49;;;;;;;10.68;1.63;;;;;;;2.37;88.82;100861.22;5052130;28;20477;-74
2021/11/29 07:30:17;;;;;;;9.65;1.85;;;;;;;2.32;89.66;100856.22;5051826;28;20044;-74
2021/11/29 07:32:43;;;;;;;11.60;1.77;;;;;;;2.29;89.35;100859.84;5052305;28;20029;-76
2021/11/29 07:35:10;;;;;;;12.15;1.70;;;;;;;2.25;89.27;100865.38;5051927;28;20059;-77
2021/11/29 07:37:35;;;;;;;9.98;2.10;;;;;;;2.19;89.04;100870.97;5034366;28;20037;-74
2021/11/29 07:40:03;;;;;;;6.47;1.55;;;;;;;2.19;87.89;100870.97;5051669;28;20127;-73
2021/11/29 07:42:29;;;;;;;10.07;1.00;;;;;;;2.25;87.62;100870.63;5059809;28;20469;-76
2021/11/29 07:44:55;;;;;;;11.65;1.85;;;;;;;2.33;87.21;100872.81;5056024;28;20542;-75
2021/11/29 07:47:21;;;;;;;17.73;2.72;;;;;;;2.37;87.93;100874.34;5055781;28;20037;-75
2021/11/29 07:49:47;;;;;;;14.35;2.50;;;;;;;2.43;88.57;100876.63;5056251;28;20499;-74
2021/11/29 07:52:14;;;;;;;18.38;2.10;;;;;;;2.61;88.14;100891.38;5055581;28;20037;-75
2021/11/29 07:54:43;;;;;;;12.02;1.90;;;;;;;2.72;89.13;100889.91;5038400;28;20033;-75
2021/11/29 07:57:10;;;;;;;10.88;2.25;;;;;;;2.82;88.34;100899.81;5055389;28;20037;-77
2021/11/29 07:59:36;;;;;;;12.52;1.85;;;;;;;2.89;87.43;100902.91;5055722;28;20033;-73
2021/11/29 08:02:02;;;;;;;12.50;2.17;;;;;;;2.90;87.83;100902.00;5046728;28;20041;-73
2021/11/29 08:04:27;;;;;;;9.48;1.85;;;;;;;2.89;87.90;100905.56;5032707;28;20072;-72
2021/11/29 08:06:53;;;;;;;13.93;1.60;;;;;;;2.90;87.88;100903.78;5033332;28;20827;-74
2021/11/29 08:09:18;;;;;;;17.40;1.98;;;;;;;2.96;87.43;100906.06;5032864;28;20037;-74
2021/11/29 08:11:44;;;;;;;10.77;2.13;;;;;;;2.97;87.70;100910.34;5033011;28;20526;-74
2021/11/29 08:14:09;;;;;;;9.02;1.80;;;;;;;3.03;86.85;100912.66;5032590;28;20041;-74
2021/11/29 08:16:35;;;;;;;17.05;2.40;;;;;;;3.12;86.42;100914.75;5033329;28;20465;-75
2021/11/29 08:19:00;;;;;;;14.65;2.33;;;;;;;3.22;85.00;100907.16;5032846;28;20432;-75
2021/11/29 08:21:25;;;;;;;12.05;1.60;;;;;;;3.30;85.26;100912.81;5031892;28;20050;-74
2021/11/29 08:23:51;;;;;;;21.92;1.95;;;;;;;3.40;83.73;100907.03;5032875;28;20133;-75
2021/11/29 08:26:16;;;;;;;7.90;1.55;;;;;;;3.57;82.76;100913.91;5032181;28;20033;-75
2021/11/29 08:28:42;;;;;;;12.07;1.90;;;;;;;3.66;80.35;100911.56;5032835;28;20044;-75
2021/11/29 08:31:07;;;;;;;17.80;2.10;;;;;;;3.74;81.90;100918.16;5014209;28;20120;-74
2021/11/29 08:33:33;;;;;;;14.00;2.03;;;;;;;3.77;81.44;100917.97;5032600;28;20087;-74
2021/11/29 08:35:58;;;;;;;6.70;1.48;;;;;;;3.79;81.64;100924.84;5032578;28;20037;-74
2021/11/29 08:38:23;;;;;;;13.23;1.98;;;;;;;3.79;82.37;100924.84;5031924;28;20767;-74
2021/11/29 08:40:49;;;;;;;17.90;2.88;;;;;;;3.83;82.50;100931.59;5032721;28;20029;-74
2021/11/29 08:43:17;;;;;;;16.35;2.20;;;;;;;3.86;83.30;100926.13;5031794;28;20450;-75
2021/11/29 08:45:43;;;;;;;15.35;2.28;;;;;;;3.86;83.82;100936.66;5039200;28;20059;-74
2021/11/29 08:48:10;;;;;;;14.25;2.17;;;;;;;3.97;80.96;100936.03;5047634;28;20029;-75
2021/11/29 08:50:39;;;;;;;12.20;1.60;;;;;;;3.97;82.47;100933.41;5054269;28;20120;-73
2021/11/29 08:53:08;;;;;;;13.32;2.63;;;;;;;3.96;81.90;100944.88;5054039;28;20120;-75
2021/11/29 08:55:36;;;;;;;22.15;2.40;;;;;;;3.97;82.94;100945.69;5054223;28;20025;-74
2021/11/29 08:58:06;;;;;;;11.20;2.47;;;;;;;4.01;83.27;100948.03;5054365;28;20060;-73
2021/11/29 09:00:34;;;;;;;24.42;2.63;;;;;;;4.02;83.91;100957.66;5027581;28;20035;-74
2021/11/29 09:03:03;;;;;;;17.55;2.35;;;;;;;4.05;82.79;100954.81;5043568;28;20025;-74
2021/11/29 09:05:30;;;;;;;12.30;2.00;;;;;;;4.10;82.16;100970.34;5044337;28;20284;-74
2021/11/29 09:07:55;;;;;;;11.02;1.85;;;;;;;4.08;82.04;100969.59;5043443;28;20029;-74
2021/11/29 09:10:23;;;;;;;14.40;2.45;;;;;;;4.15;78.80;100964.78;5043214;28;20041;-75
2021/11/29 09:12:49;;;;;;;14.05;2.38;;;;;;;4.18;79.48;100968.09;5044840;28;20056;-74
2021/11/29 09:15:16;;;;;;;12.70;2.00;;;;;;;4.22;79.14;100976.66;5045747;28;20434;-75
2021/11/29 09:17:41;;;;;;;10.35;1.77;;;;;;;4.22;79.46;100988.03;5054081;28;20044;-74
2021/11/29 09:20:10;;;;;;;13.98;2.00;;;;;;;4.22;78.89;100988.03;5054027;28;20049;-74
2021/11/29 09:22:36;;;;;;;10.20;2.13;;;;;;;4.27;76.85;100989.53;5035771;28;20116;-74
2021/11/29 09:25:03;;;;;;;16.17;1.70;;;;;;;4.30;79.01;100997.25;5053829;28;20029;-73
2021/11/29 09:27:28;;;;;;;11.18;1.60;;;;;;;4.35;79.84;100990.75;5053268;28;20540;-73
2021/11/29 09:29:53;;;;;;;16.75;2.65;;;;;;;4.43;80.24;101007.88;5036025;28;20120;-72
2021/11/29 09:32:19;;;;;;;8.57;1.40;;;;;;;4.38;81.85;101010.78;5053339;28;20444;-75
2021/11/29 09:34:47;;;;;;;11.25;1.73;;;;;;;4.28;83.44;101010.50;5054048;28;20041;-73
2021/11/29 09:37:13;;;;;;;11.55;1.90;;;;;;;4.19;83.26;101016.34;5053591;28;20029;-74
2021/11/29 09:39:38;;;;;;;11.23;1.60;;;;;;;4.10;84.03;101019.53;5050883;28;20098;-74
2021/11/29 09:42:04;;;;;;;11.77;1.77;;;;;;;4.08;83.14;101022.25;5037195;28;20434;-73
2021/11/29 09:44:29;;;;;;;12.45;2.25;;;;;;;4.28;83.23;101034.22;5050759;28;20111;-74
2021/11/29 09:46:55;;;;;;;10.07;1.55;;;;;;;4.42;81.97;101030.75;5053387;28;20033;-72
2021/11/29 09:49:21;;;;;;;6.85;1.70;;;;;;;4.37;82.50;101032.81;5052519;28;20093;-73
2021/11/29 09:51:46;;;;;;;10.75;1.70;;;;;;;4.30;82.24;101039.38;5052842;28;20029;-74
2021/11/29 09:54:11;;;;;;;11.95;1.80;;;;;;;4.23;83.06;101042.41;5052631;28;20090;-75
2021/11/29 09:56:38;;;;;;;11.23;1.30;;;;;;;4.29;83.37;101051.72;5052554;28;20025;-77
2021/11/29 09:59:05;;;;;;;9.20;1.50;;;;;;;4.32;84.47;101062.06;5052791;28;20500;-75
2021/11/29 10:01:31;;;;;;;11.45;1.30;;;;;;;4.15;86.39;101049.06;5052498;28;20036;-74
2021/11/29 10:03:56;;;;;;;6.50;1.60;;;;;;;3.98;85.62;101043.03;5051835;28;20029;-74
2021/11/29 10:06:22;;;;;;;14.77;1.67;;;;;;;3.85;87.81;101049.94;5052099;28;20464;-75
2021/11/29 10:08:48;;;;;;;11.43;1.73;;;;;;;3.79;86.65;101048.56;5052597;28;20065;-76
2021/11/29 10:11:17;;;;;;;5.88;2.08;;;;;;;3.88;87.31;101049.75;5052739;28;20060;-75
2021/11/29 10:13:55;;;;;;;10.98;1.70;;;;;;;4.01;85.90;101058.63;5052307;28;20035;-76
2021/11/29 10:16:39;;;;;;;6.55;1.65;;;;;;;4.04;86.27;101057.63;5051861;28;20125;-75
2021/11/29 10:19:09;;;;;;;12.98;1.67;;;;;;;4.01;86.39;101057.78;5052482;28;20025;-76
2021/11/29 10:21:34;;;;;;;9.60;1.85;;;;;;;4.03;86.91;101051.50;5052031;28;20049;-75
2021/11/29 10:24:01;;;;;;;14.35;1.70;;;;;;;4.38;86.69;101051.16;5052248;28;20033;-75
2021/11/29 10:26:34;;;;;;;6.75;2.58;;;;;;;4.71;83.47;101060.56;5051817;28;20029;-74
2021/11/29 10:29:04;;;;;;;6.18;1.50;;;;;;;4.80;82.95;101053.84;5052675;28;20063;-78
2021/11/29 10:31:35;;;;;;;11.95;2.15;;;;;;;4.72;82.24;101049.06;5052047;28;20064;-75
2021/11/29 10:34:12;;;;;;;7.00;1.40;;;;;;;4.68;82.97;101060.75;5052095;28;20393;-76
2021/11/29 10:36:40;;;;;;;8.48;1.38;;;;;;;4.73;82.05;101058.69;5051464;28;20458;-75
2021/11/29 10:39:12;;;;;;;5.57;1.40;;;;;;;4.83;81.48;101058.09;5051998;28;20111;-79
2021/11/29 10:41:42;;;;;;;;;;;;;;;4.86;80.19;101053.47;5052757;28;20357;-75
2021/11/29 10:44:13;;;;;;;9.13;1.85;;;;;;;4.86;81.87;101056.09;5052683;28;19913;-74
2021/11/29 10:46:45;;;;;;;8.88;1.60;;;;;;;4.80;82.58;101058.28;5052169;28;20449;-75
2021/11/29 10:49:13;;;;;;;8.00;1.40;;;;;;;4.80;81.35;101053.03;5052758;28;20029;-74
2021/11/29 10:51:41;;;;;;;10.88;1.42;;;;;;;4.94;81.92;101050.34;5052242;28;20037;-74
2021/11/29 10:54:19;;;;;;;7.00;1.48;;;;;;;5.03;81.85;101062.09;5052829;28;20037;-75
2021/11/29 10:56:45;;;;;;;16.05;2.30;;;;;;;5.04;81.09;101061.16;5052530;28;20162;-74
2021/11/29 10:59:16;;;;;;;8.05;1.48;;;;;;;5.02;79.96;101055.16;5052244;28;20079;-74
2021/11/29 11:01:51;;;;;;;14.05;1.80;;;;;;;4.98;80.20;101061.56;5052049;28;20065;-74
2021/11/29 11:04:32;;;;;;;9.95;1.70;;;;;;;5.02;79.69;101057.78;5052243;28;20021;-74
2021/11/29 11:07:05;;;;;;;6.53;1.45;;;;;;;5.18;80.25;101057.63;5052292;28;20029;-74
2021/11/29 11:09:31;;;;;;;12.13;2.38;;;;;;;5.21;78.50;101065.34;5051789;28;20028;-75
2021/11/29 11:12:02;;;;;;;10.68;2.13;;;;;;;5.25;79.44;101065.03;5052334;28;20032;-75
2021/11/29 11:14:50;;;;;;;13.32;2.10;;;;;;;5.18;80.65;101063.78;5051960;28;20029;-74
2021/11/29 11:17:16;;;;;;;7.53;1.90;;;;;;;5.21;80.20;101058.31;5052245;28;20028;-74
2021/11/29 11:19:49;;;;;;;11.80;2.20;;;;;;;5.36;79.45;101064.38;5051550;28;20057;-75